Time;durP1;ratioP1;P1;durP2;ratioP2;P2;SDS_P1;SDS_P2;PMS_P1;PMS_P2;Temp;Humidity;BMP_temperature;BMP_pressure;BME280_temperature;BME280_humidity;BME280_pressure;Samples;Min_cycle;Max_cycle;Signal;HPM_P1;HPM_P2
2022/05/05 00:27:46;;;;;;;23.27;10.60;;;;;;;10.31;59.81;100286.50;30994118;28;97083;-69
2022/05/05 00:42:47;;;;;;;16.27;10.73;;;;;;;10.12;60.54;100281.50;30991828;28;97812;-69
2022/05/05 00:57:47;;;;;;;23.35;10.13;;;;;;;9.98;61.58;100280.31;30990022;28;97302;-71
2022/05/05 01:12:48;;;;;;;15.45;10.48;;;;;;;9.74;62.37;100297.06;30988048;28;96658;-68
2022/05/05 01:43:07;;;;;;;17.00;12.90;;;;;;;9.44;63.90;100304.59;30987753;28;96691;-69
2022/05/05 01:58:08;;;;;;;17.70;13.18;;;;;;;9.26;65.13;100308.16;30983184;28;97639;-69
2022/05/05 02:13:09;;;;;;;18.08;12.80;;;;;;;9.09;65.86;100309.06;30982111;28;96675;-68
2022/05/05 02:28:10;;;;;;;19.20;12.97;;;;;;;9.05;66.17;100319.19;30981815;28;97416;-69
2022/05/05 02:43:10;;;;;;;25.55;13.65;;;;;;;8.88;66.88;100309.47;30979591;28;97861;-69
2022/05/05 02:58:11;;;;;;;30.10;15.02;;;;;;;8.69;67.07;100299.88;30978480;28;112052;-69
2022/05/05 03:13:11;;;;;;;26.98;15.50;;;;;;;8.51;67.75;100305.22;30975324;28;110193;-69
2022/05/05 03:28:11;;;;;;;19.60;14.70;;;;;;;8.38;67.92;100308.22;30974575;28;96823;-69
2022/05/05 03:43:12;;;;;;;34.45;14.93;;;;;;;8.32;68.50;100319.47;30972834;28;97494;-69
2022/05/05 03:58:12;;;;;;;26.45;15.48;;;;;;;8.34;69.36;100331.59;30992806;28;97042;-68
2022/05/05 04:13:12;;;;;;;27.95;15.95;;;;;;;8.48;69.29;100340.03;30990330;28;96841;-68
2022/05/05 04:28:13;;;;;;;25.02;17.15;;;;;;;8.67;69.10;100355.78;30988857;28;96610;-69
2022/05/05 04:43:13;;;;;;;27.65;16.38;;;;;;;9.01;69.38;100363.03;30988273;28;96741;-70
2022/05/05 04:58:14;;;;;;;29.77;17.33;;;;;;;9.43;69.00;100362.28;30986231;28;108833;-69
2022/05/05 05:13:14;;;;;;;30.48;16.92;;;;;;;10.12;68.66;100367.50;30983422;28;106134;-77
2022/05/05 05:28:14;;;;;;;28.00;16.83;;;;;;;10.86;66.94;100377.41;30983960;28;96741;-71
2022/05/05 05:43:15;;;;;;;26.67;16.45;;;;;;;11.39;65.61;100380.50;30971614;28;97193;-70
2022/05/05 05:58:16;;;;;;;25.87;15.60;;;;;;;12.26;64.00;100376.13;30938462;28;97474;-72
2022/05/05 06:13:16;;;;;;;30.70;16.48;;;;;;;13.46;62.12;100378.13;30854449;28;96914;-70
2022/05/05 06:28:16;;;;;;;20.92;16.48;;;;;;;14.40;59.27;100384.59;30853290;28;101923;-73
2022/05/05 06:43:18;;;;;;;27.90;18.25;;;;;;;15.59;57.06;100379.56;30855790;28;96803;-68
2022/05/05 06:58:19;;;;;;;25.90;15.47;;;;;;;16.99;53.97;100376.44;30852442;28;96986;-71
2022/05/05 07:13:23;;;;;;;22.55;15.25;;;;;;;18.53;49.66;100378.59;30837255;28;114608;-73
2022/05/05 07:28:24;;;;;;;15.77;12.00;;;;;;;20.11;46.41;100384.50;30856588;28;97194;-69
2022/05/05 07:43:25;;;;;;;13.85;11.52;;;;;;;21.40;41.69;100384.97;30867868;28;98464;-71
2022/05/05 07:58:25;;;;;;;12.70;9.70;;;;;;;22.80;38.12;100378.47;30865973;28;96855;-70
2022/05/05 08:13:25;;;;;;;11.93;9.60;;;;;;;24.10;34.13;100390.03;30905209;28;106923;-70
2022/05/05 08:28:28;;;;;;;15.60;11.20;;;;;;;24.28;32.32;100394.31;30933245;28;96765;-70
2022/05/05 08:43:29;;;;;;;13.37;9.60;;;;;;;25.32;29.76;100395.97;30983854;28;97403;-71
2022/05/05 08:58:31;;;;;;;16.47;10.47;;;;;;;25.17;29.49;100396.69;30891179;28;96984;-69
2022/05/05 09:13:36;;;;;;;14.97;10.33;;;;;;;24.98;29.10;100408.00;30860311;28;96893;-71
2022/05/05 09:28:37;;;;;;;13.60;9.13;;;;;;;24.89;29.01;100406.88;30860249;28;96802;-69
2022/05/05 09:43:37;;;;;;;11.75;8.85;;;;;;;26.04;27.62;100393.63;30857999;28;101533;-69
2022/05/05 09:58:39;;;;;;;10.23;7.18;;;;;;;26.27;25.47;100400.50;30857386;28;96987;-69
2022/05/05 10:13:40;;;;;;;9.27;7.53;;;;;;;27.19;25.62;100396.16;30854467;28;96855;-71
2022/05/05 10:28:47;;;;;;;9.53;6.37;;;;;;;27.57;24.95;100382.94;30855207;28;96886;-69
2022/05/05 10:44:16;;;;;;;8.40;6.50;;;;;;;28.81;24.30;100379.47;30853816;28;96800;-71
2022/05/05 10:59:18;;;;;;;8.43;5.93;;;;;;;28.32;23.33;100368.34;30852193;28;96726;-69
2022/05/05 11:29:57;;;;;;;5.93;4.70;;;;;;;28.13;21.66;100353.66;30909835;28;98361;-68
2022/05/05 11:44:58;;;;;;;7.20;4.70;;;;;;;28.90;21.14;100344.00;30924122;28;97660;-70
2022/05/05 12:15:20;;;;;;;5.47;3.63;;;;;;;30.26;19.26;100340.94;30954777;28;96744;-71
2022/05/05 12:30:37;;;;;;;10.17;4.37;;;;;;;31.01;18.83;100321.81;30862979;28;96866;-71
2022/05/05 12:45:38;;;;;;;8.20;4.30;;;;;;;29.39;20.69;100326.50;30864230;28;96928;-72
2022/05/05 13:00:38;;;;;;;6.50;3.75;;;;;;;26.43;23.56;100324.84;30861855;28;96777;-71
2022/05/05 13:15:39;;;;;;;5.18;4.20;;;;;;;24.47;25.83;100339.50;30915238;28;96997;-74
2022/05/05 13:30:39;;;;;;;;;;;;;;;22.29;36.00;100416.38;30870211;28;97526;-71
2022/05/05 13:45:39;;;;;;;10.48;5.72;;;;;;;18.09;48.35;100454.72;30862624;28;97219;-70
2022/05/05 14:00:40;;;;;;;8.82;6.53;;;;;;;17.13;53.04;100464.22;30970427;28;102417;-74
2022/05/05 14:15:41;;;;;;;6.22;5.55;;;;;;;16.68;56.14;100455.88;30968031;28;97153;-73
2022/05/05 14:30:41;;;;;;;7.00;5.93;;;;;;;16.44;58.74;100452.69;30926282;28;98392;-75
2022/05/05 14:45:42;;;;;;;10.43;7.38;;;;;;;16.43;60.55;100459.13;30959869;28;96895;-74
2022/05/05 15:00:42;;;;;;;9.60;7.07;;;;;;;16.54;60.55;100482.72;30945000;28;97365;-72
2022/05/05 15:15:42;;;;;;;12.38;9.73;;;;;;;16.79;61.75;100475.97;30972522;28;96897;-75
2022/05/05 15:30:43;;;;;;;10.50;8.80;;;;;;;17.03;62.46;100482.63;30971230;28;96796;-73
2022/05/05 15:45:43;;;;;;;10.52;8.23;;;;;;;17.02;62.62;100489.06;30965581;28;97550;-74
2022/05/05 16:00:47;;;;;;;9.52;7.93;;;;;;;17.08;62.53;100482.84;30974268;28;105014;-72
2022/05/05 16:15:48;;;;;;;9.20;6.73;;;;;;;17.27;60.76;100481.19;30924374;28;97168;-75
2022/05/05 16:30:48;;;;;;;9.67;7.47;;;;;;;17.42;59.77;100491.75;30963569;28;97418;-76
2022/05/05 16:45:49;;;;;;;9.40;7.28;;;;;;;17.31;59.67;100495.06;30957062;28;97805;-75
2022/05/05 17:00:49;;;;;;;11.10;7.30;;;;;;;17.24;59.46;100497.75;30940557;28;97532;-70
2022/05/05 17:15:50;;;;;;;11.98;7.85;;;;;;;17.43;58.81;100485.34;30917646;28;97618;-72
2022/05/05 17:30:50;;;;;;;9.65;7.45;;;;;;;17.47;58.52;100500.03;30902322;28;97568;-77
2022/05/05 18:01:09;;;;;;;12.47;9.33;;;;;;;16.53;60.91;100502.56;30904268;28;97184;-76
2022/05/05 18:16:11;;;;;;;13.93;10.13;;;;;;;15.97;62.96;100510.81;30885306;28;97107;-76
2022/05/05 18:31:12;;;;;;;12.33;10.20;;;;;;;15.35;65.17;100522.13;30900313;28;98302;-77
2022/05/05 18:46:12;;;;;;;21.13;14.07;;;;;;;14.84;66.68;100549.91;30881462;28;97621;-76
2022/05/05 19:01:18;;;;;;;15.52;13.13;;;;;;;14.60;67.94;100567.13;30852249;28;97439;-75
2022/05/05 19:16:19;;;;;;;21.30;14.70;;;;;;;14.46;69.14;100595.63;30853149;28;97833;-75
2022/05/05 19:31:19;;;;;;;19.85;14.35;;;;;;;14.26;70.14;100602.56;30891803;28;106057;-75
2022/05/05 19:46:38;;;;;;;18.63;15.07;;;;;;;14.16;70.86;100605.47;30970884;28;97541;-74
2022/05/05 20:01:39;;;;;;;21.33;15.43;;;;;;;14.24;71.24;100624.16;30894079;28;96781;-74
2022/05/05 20:16:39;;;;;;;26.30;17.60;;;;;;;14.31;71.94;100651.91;30847733;28;97266;-74
2022/05/05 20:31:40;;;;;;;21.70;16.70;;;;;;;14.38;72.13;100665.41;30856794;28;96709;-76
2022/05/05 20:46:40;;;;;;;26.85;17.88;;;;;;;14.30;72.87;100665.47;30863717;28;97283;-75
2022/05/05 21:01:40;;;;;;;23.63;17.30;;;;;;;14.38;73.00;100647.44;30878028;28;96724;-74
2022/05/05 21:16:40;;;;;;;25.65;17.35;;;;;;;14.44;73.29;100659.28;30977934;28;105822;-73
2022/05/05 21:31:42;;;;;;;22.15;16.90;;;;;;;14.37;73.90;100661.88;30982996;28;97270;-74
2022/05/05 21:46:42;;;;;;;22.43;17.23;;;;;;;14.33;73.95;100675.81;30953422;28;97586;-75
2022/05/05 22:01:43;;;;;;;23.20;17.55;;;;;;;14.15;74.38;100682.34;30868568;28;108510;-80
2022/05/05 22:16:43;;;;;;;24.33;16.60;;;;;;;14.04;74.63;100690.84;30909440;28;96747;-73
2022/05/05 22:31:46;;;;;;;18.38;14.93;;;;;;;13.99;74.75;100682.50;30981304;28;97464;-73
2022/05/05 22:46:46;;;;;;;15.90;10.63;;;;;;;13.99;73.32;100677.97;30950703;28;96750;-73
2022/05/05 23:01:47;;;;;;;12.32;10.45;;;;;;;13.95;72.42;100679.34;30929186;28;97351;-73
2022/05/05 23:16:47;;;;;;;13.85;10.40;;;;;;;13.86;71.88;100683.13;30870592;28;97417;-72
2022/05/05 23:31:48;;;;;;;14.27;10.40;;;;;;;13.56;71.46;100682.16;30853964;28;97931;-73
2022/05/05 23:46:48;;;;;;;13.83;9.90;;;;;;;13.19;72.50;100682.69;30924479;28;97465;-73
